sensor_id;sensor_type;location;lat;lon;timestamp;temperature;humidity
15328;DHT22;7764;51.430;6.840;2023-03-22T00:02:23;12.40;99.90
15328;DHT22;7764;51.430;6.840;2023-03-22T00:04:52;12.50;99.90
15328;DHT22;7764;51.430;6.840;2023-03-22T00:07:19;12.50;99.90
15328;DHT22;7764;51.430;6.840;2023-03-22T00:09:46;12.50;99.90
15328;DHT22;7764;51.430;6.840;2023-03-22T00:12:13;12.50;99.90
15328;DHT22;7764;51.430;6.840;2023-03-22T00:14:40;12.50;99.90
15328;DHT22;7764;51.430;6.840;2023-03-22T00:17:07;12.40;99.90
15328;DHT22;7764;51.430;6.840;2023-03-22T00:19:34;12.40;99.90
15328;DHT22;7764;51.430;6.840;2023-03-22T00:22:03;12.40;99.90
15328;DHT22;7764;51.430;6.840;2023-03-22T00:24:31;12.40;99.90
15328;DHT22;7764;51.430;6.840;2023-03-22T00:26:58;12.40;99.90
15328;DHT22;7764;51.430;6.840;2023-03-22T00:29:25;12.40;99.90
15328;DHT22;7764;51.430;6.840;2023-03-22T00:31:52;12.30;99.90
15328;DHT22;7764;51.430;6.840;2023-03-22T00:34:20;12.30;99.90
15328;DHT22;7764;51.430;6.840;2023-03-22T00:36:47;12.30;99.90
15328;DHT22;7764;51.430;6.840;2023-03-22T00:39:15;12.30;99.90
15328;DHT22;7764;51.430;6.840;2023-03-22T00:41:42;12.20;99.90
15328;DHT22;7764;51.430;6.840;2023-03-22T00:44:09;12.20;99.90
15328;DHT22;7764;51.430;6.840;2023-03-22T00:46:36;12.10;99.90
15328;DHT22;7764;51.430;6.840;2023-03-22T00:49:03;12.10;99.90
15328;DHT22;7764;51.430;6.840;2023-03-22T00:51:29;12.10;99.90
15328;DHT22;7764;51.430;6.840;2023-03-22T00:53:56;12.10;99.90
15328;DHT22;7764;51.430;6.840;2023-03-22T00:56:24;12.10;99.90
15328;DHT22;7764;51.430;6.840;2023-03-22T00:58:53;12.10;99.90
15328;DHT22;7764;51.430;6.840;2023-03-22T01:01:20;12.10;99.90
15328;DHT22;7764;51.430;6.840;2023-03-22T01:03:46;12.10;99.90
15328;DHT22;7764;51.430;6.840;2023-03-22T01:06:15;12.10;99.90
15328;DHT22;7764;51.430;6.840;2023-03-22T01:08:42;12.10;99.90
15328;DHT22;7764;51.430;6.840;2023-03-22T01:11:09;12.10;99.90
15328;DHT22;7764;51.430;6.840;2023-03-22T01:13:38;12.10;99.90
15328;DHT22;7764;51.430;6.840;2023-03-22T01:16:07;12.10;99.90
15328;DHT22;7764;51.430;6.840;2023-03-22T01:18:34;12.10;99.90
15328;DHT22;7764;51.430;6.840;2023-03-22T01:21:02;12.10;99.90
15328;DHT22;7764;51.430;6.840;2023-03-22T01:23:28;12.10;99.90
15328;DHT22;7764;51.430;6.840;2023-03-22T01:25:55;12.00;99.90
15328;DHT22;7764;51.430;6.840;2023-03-22T01:28:22;12.00;99.90
15328;DHT22;7764;51.430;6.840;2023-03-22T01:30:50;12.10;99.90
15328;DHT22;7764;51.430;6.840;2023-03-22T01:33:17;12.10;99.90
15328;DHT22;7764;51.430;6.840;2023-03-22T01:35:44;12.20;99.90
15328;DHT22;7764;51.430;6.840;2023-03-22T01:38:11;12.10;99.90
15328;DHT22;7764;51.430;6.840;2023-03-22T01:40:38;12.10;99.90
15328;DHT22;7764;51.430;6.840;2023-03-22T01:43:11;12.10;99.90
15328;DHT22;7764;51.430;6.840;2023-03-22T01:45:41;12.10;99.90
15328;DHT22;7764;51.430;6.840;2023-03-22T01:48:24;12.00;99.90
15328;DHT22;7764;51.430;6.840;2023-03-22T01:51:01;12.00;99.90
15328;DHT22;7764;51.430;6.840;2023-03-22T01:53:31;12.00;99.90
15328;DHT22;7764;51.430;6.840;2023-03-22T01:56:00;11.90;99.90
15328;DHT22;7764;51.430;6.840;2023-03-22T01:58:28;11.90;99.90
15328;DHT22;7764;51.430;6.840;2023-03-22T02:00:55;11.90;99.90
15328;DHT22;7764;51.430;6.840;2023-03-22T02:03:29;11.80;99.90
15328;DHT22;7764;51.430;6.840;2023-03-22T02:05:58;11.80;99.90
15328;DHT22;7764;51.430;6.840;2023-03-22T02:08:25;11.80;99.90
15328;DHT22;7764;51.430;6.840;2023-03-22T02:10:52;11.70;99.90
15328;DHT22;7764;51.430;6.840;2023-03-22T02:13:27;11.70;99.90
15328;DHT22;7764;51.430;6.840;2023-03-22T02:16:09;11.60;99.90
15328;DHT22;7764;51.430;6.840;2023-03-22T02:18:52;11.60;99.90
15328;DHT22;7764;51.430;6.840;2023-03-22T02:21:55;11.60;99.90
15328;DHT22;7764;51.430;6.840;2023-03-22T02:24:44;11.60;99.90
15328;DHT22;7764;51.430;6.840;2023-03-22T02:27:46;11.60;99.90
15328;DHT22;7764;51.430;6.840;2023-03-22T02:33:28;11.60;99.90
15328;DHT22;7764;51.430;6.840;2023-03-22T02:36:22;11.60;99.90
15328;DHT22;7764;51.430;6.840;2023-03-22T02:39:15;11.50;99.90
15328;DHT22;7764;51.430;6.840;2023-03-22T02:41:52;11.50;99.90
15328;DHT22;7764;51.430;6.840;2023-03-22T02:44:26;11.40;99.90
15328;DHT22;7764;51.430;6.840;2023-03-22T02:46:59;11.30;99.90
15328;DHT22;7764;51.430;6.840;2023-03-22T02:49:32;11.30;99.90
15328;DHT22;7764;51.430;6.840;2023-03-22T02:52:09;11.20;99.90
15328;DHT22;7764;51.430;6.840;2023-03-22T02:54:40;11.20;99.90
15328;DHT22;7764;51.430;6.840;2023-03-22T02:57:12;11.10;99.90
15328;DHT22;7764;51.430;6.840;2023-03-22T02:59:41;11.10;99.90
15328;DHT22;7764;51.430;6.840;2023-03-22T03:02:11;11.00;99.90
15328;DHT22;7764;51.430;6.840;2023-03-22T03:04:42;11.00;99.90
15328;DHT22;7764;51.430;6.840;2023-03-22T03:07:13;11.00;99.90
15328;DHT22;7764;51.430;6.840;2023-03-22T03:09:42;11.00;99.90
15328;DHT22;7764;51.430;6.840;2023-03-22T03:12:13;10.90;99.90
15328;DHT22;7764;51.430;6.840;2023-03-22T03:14:40;10.90;99.90
15328;DHT22;7764;51.430;6.840;2023-03-22T03:17:16;10.90;99.90
15328;DHT22;7764;51.430;6.840;2023-03-22T03:19:56;10.90;99.90
15328;DHT22;7764;51.430;6.840;2023-03-22T03:22:37;10.90;99.90
15328;DHT22;7764;51.430;6.840;2023-03-22T03:25:15;10.80;99.90
15328;DHT22;7764;51.430;6.840;2023-03-22T03:27:47;10.80;99.90
15328;DHT22;7764;51.430;6.840;2023-03-22T03:30:18;10.80;99.90
15328;DHT22;7764;51.430;6.840;2023-03-22T03:32:52;10.80;99.90
15328;DHT22;7764;51.430;6.840;2023-03-22T03:35:23;10.80;99.90
15328;DHT22;7764;51.430;6.840;2023-03-22T03:37:54;10.80;99.90
15328;DHT22;7764;51.430;6.840;2023-03-22T03:40:27;10.70;99.90
15328;DHT22;7764;51.430;6.840;2023-03-22T03:42:57;10.70;99.90
15328;DHT22;7764;51.430;6.840;2023-03-22T03:45:27;10.70;99.90
15328;DHT22;7764;51.430;6.840;2023-03-22T03:47:57;10.70;99.90
15328;DHT22;7764;51.430;6.840;2023-03-22T03:50:26;10.60;99.90
15328;DHT22;7764;51.430;6.840;2023-03-22T03:52:54;10.60;99.90
15328;DHT22;7764;51.430;6.840;2023-03-22T03:55:22;10.60;99.90
15328;DHT22;7764;51.430;6.840;2023-03-22T03:57:50;10.60;99.90
15328;DHT22;7764;51.430;6.840;2023-03-22T04:00:18;10.60;99.90
15328;DHT22;7764;51.430;6.840;2023-03-22T04:02:45;10.60;99.90
15328;DHT22;7764;51.430;6.840;2023-03-22T04:05:13;10.50;99.90
15328;DHT22;7764;51.430;6.840;2023-03-22T04:07:40;10.50;99.90
15328;DHT22;7764;51.430;6.840;2023-03-22T04:10:07;10.50;99.90
15328;DHT22;7764;51.430;6.840;2023-03-22T04:12:34;10.50;99.90
15328;DHT22;7764;51.430;6.840;2023-03-22T04:15:02;10.50;99.90
15328;DHT22;7764;51.430;6.840;2023-03-22T04:17:29;10.50;99.90
15328;DHT22;7764;51.430;6.840;2023-03-22T04:19:56;10.50;99.90
15328;DHT22;7764;51.430;6.840;2023-03-22T04:22:24;10.50;99.90
15328;DHT22;7764;51.430;6.840;2023-03-22T04:24:51;10.50;99.90
15328;DHT22;7764;51.430;6.840;2023-03-22T04:27:19;10.50;99.90
15328;DHT22;7764;51.430;6.840;2023-03-22T04:29:47;10.50;99.90
15328;DHT22;7764;51.430;6.840;2023-03-22T04:32:17;10.40;99.90
15328;DHT22;7764;51.430;6.840;2023-03-22T04:34:47;10.40;99.90
15328;DHT22;7764;51.430;6.840;2023-03-22T04:37:14;10.40;99.90
15328;DHT22;7764;51.430;6.840;2023-03-22T04:39:42;10.40;99.90
15328;DHT22;7764;51.430;6.840;2023-03-22T04:42:09;10.40;99.90
15328;DHT22;7764;51.430;6.840;2023-03-22T04:44:36;10.40;99.90
15328;DHT22;7764;51.430;6.840;2023-03-22T04:47:02;10.40;99.90
15328;DHT22;7764;51.430;6.840;2023-03-22T04:49:31;10.40;99.90
15328;DHT22;7764;51.430;6.840;2023-03-22T04:51:58;10.40;99.90
15328;DHT22;7764;51.430;6.840;2023-03-22T04:54:25;10.50;99.90
15328;DHT22;7764;51.430;6.840;2023-03-22T04:56:52;10.50;99.90
15328;DHT22;7764;51.430;6.840;2023-03-22T04:59:19;10.50;99.90
15328;DHT22;7764;51.430;6.840;2023-03-22T05:01:45;10.50;99.90
15328;DHT22;7764;51.430;6.840;2023-03-22T05:04:13;10.60;99.90
15328;DHT22;7764;51.430;6.840;2023-03-22T05:06:41;10.60;99.90
15328;DHT22;7764;51.430;6.840;2023-03-22T05:09:08;10.70;99.90
15328;DHT22;7764;51.430;6.840;2023-03-22T05:11:35;10.70;99.90
15328;DHT22;7764;51.430;6.840;2023-03-22T05:14:02;10.70;99.90
15328;DHT22;7764;51.430;6.840;2023-03-22T05:16:29;10.70;99.90
15328;DHT22;7764;51.430;6.840;2023-03-22T05:18:56;10.80;99.90
15328;DHT22;7764;51.430;6.840;2023-03-22T05:21:24;10.80;99.90
15328;DHT22;7764;51.430;6.840;2023-03-22T05:23:55;10.80;99.90
15328;DHT22;7764;51.430;6.840;2023-03-22T05:26:22;10.80;99.90
15328;DHT22;7764;51.430;6.840;2023-03-22T05:28:51;10.90;99.90
15328;DHT22;7764;51.430;6.840;2023-03-22T05:31:18;10.90;99.90
15328;DHT22;7764;51.430;6.840;2023-03-22T05:33:46;10.90;99.90
15328;DHT22;7764;51.430;6.840;2023-03-22T05:36:15;10.90;99.90
15328;DHT22;7764;51.430;6.840;2023-03-22T05:38:43;10.90;99.90
15328;DHT22;7764;51.430;6.840;2023-03-22T05:41:11;11.00;99.90
15328;DHT22;7764;51.430;6.840;2023-03-22T05:43:39;11.00;99.90
15328;DHT22;7764;51.430;6.840;2023-03-22T05:46:07;10.90;99.90
15328;DHT22;7764;51.430;6.840;2023-03-22T05:48:34;10.90;99.90
15328;DHT22;7764;51.430;6.840;2023-03-22T05:51:04;11.00;99.90
15328;DHT22;7764;51.430;6.840;2023-03-22T05:53:31;11.00;99.90
15328;DHT22;7764;51.430;6.840;2023-03-22T05:55:59;11.10;99.90
15328;DHT22;7764;51.430;6.840;2023-03-22T05:58:28;11.20;99.90
15328;DHT22;7764;51.430;6.840;2023-03-22T06:00:55;11.30;99.90
15328;DHT22;7764;51.430;6.840;2023-03-22T06:03:25;11.30;99.90
15328;DHT22;7764;51.430;6.840;2023-03-22T06:05:52;11.40;99.90
15328;DHT22;7764;51.430;6.840;2023-03-22T06:08:20;11.40;99.90
15328;DHT22;7764;51.430;6.840;2023-03-22T06:10:48;11.50;99.90
15328;DHT22;7764;51.430;6.840;2023-03-22T06:13:16;11.60;99.90
15328;DHT22;7764;51.430;6.840;2023-03-22T06:15:44;11.60;99.90
15328;DHT22;7764;51.430;6.840;2023-03-22T06:18:12;11.60;99.90
15328;DHT22;7764;51.430;6.840;2023-03-22T06:20:40;11.70;99.90
15328;DHT22;7764;51.430;6.840;2023-03-22T06:23:07;11.70;99.90
15328;DHT22;7764;51.430;6.840;2023-03-22T06:25:34;11.80;99.90
15328;DHT22;7764;51.430;6.840;2023-03-22T06:28:00;11.90;99.90
15328;DHT22;7764;51.430;6.840;2023-03-22T06:30:27;11.90;99.90
15328;DHT22;7764;51.430;6.840;2023-03-22T06:32:56;12.00;99.90
15328;DHT22;7764;51.430;6.840;2023-03-22T06:35:25;12.00;99.90
15328;DHT22;7764;51.430;6.840;2023-03-22T06:37:52;12.00;99.90
15328;DHT22;7764;51.430;6.840;2023-03-22T06:40:19;12.00;99.90
15328;DHT22;7764;51.430;6.840;2023-03-22T06:42:45;12.00;99.90
15328;DHT22;7764;51.430;6.840;2023-03-22T06:45:13;12.10;99.90
15328;DHT22;7764;51.430;6.840;2023-03-22T06:47:41;12.20;99.90
15328;DHT22;7764;51.430;6.840;2023-03-22T06:50:10;12.20;99.90
15328;DHT22;7764;51.430;6.840;2023-03-22T06:52:37;12.20;99.90
15328;DHT22;7764;51.430;6.840;2023-03-22T06:55:04;12.30;99.90
15328;DHT22;7764;51.430;6.840;2023-03-22T06:57:31;12.40;99.90
15328;DHT22;7764;51.430;6.840;2023-03-22T06:59:58;12.40;99.90
15328;DHT22;7764;51.430;6.840;2023-03-22T07:02:25;12.40;99.90
15328;DHT22;7764;51.430;6.840;2023-03-22T07:04:54;12.30;99.90
15328;DHT22;7764;51.430;6.840;2023-03-22T07:07:22;12.40;99.90
15328;DHT22;7764;51.430;6.840;2023-03-22T07:09:51;12.30;99.90
15328;DHT22;7764;51.430;6.840;2023-03-22T07:12:18;12.30;99.90
15328;DHT22;7764;51.430;6.840;2023-03-22T07:14:45;12.40;99.90
15328;DHT22;7764;51.430;6.840;2023-03-22T07:17:12;12.40;99.90
15328;DHT22;7764;51.430;6.840;2023-03-22T07:19:39;12.60;99.90
15328;DHT22;7764;51.430;6.840;2023-03-22T07:22:07;12.90;99.90
15328;DHT22;7764;51.430;6.840;2023-03-22T07:24:35;13.10;99.90
15328;DHT22;7764;51.430;6.840;2023-03-22T07:27:02;13.40;99.90
15328;DHT22;7764;51.430;6.840;2023-03-22T07:29:29;13.60;99.90
15328;DHT22;7764;51.430;6.840;2023-03-22T07:31:56;13.70;99.90
15328;DHT22;7764;51.430;6.840;2023-03-22T07:34:23;13.70;99.90
15328;DHT22;7764;51.430;6.840;2023-03-22T07:36:50;13.70;99.90
15328;DHT22;7764;51.430;6.840;2023-03-22T07:39:17;13.60;99.90
15328;DHT22;7764;51.430;6.840;2023-03-22T07:41:45;13.60;99.90
15328;DHT22;7764;51.430;6.840;2023-03-22T07:44:12;13.50;99.90
15328;DHT22;7764;51.430;6.840;2023-03-22T07:46:39;13.50;99.90
15328;DHT22;7764;51.430;6.840;2023-03-22T07:49:06;13.30;99.90
15328;DHT22;7764;51.430;6.840;2023-03-22T07:51:33;13.30;99.90
15328;DHT22;7764;51.430;6.840;2023-03-22T07:54:00;13.30;99.90
15328;DHT22;7764;51.430;6.840;2023-03-22T07:56:27;13.30;99.90
15328;DHT22;7764;51.430;6.840;2023-03-22T07:58:56;13.30;99.90
15328;DHT22;7764;51.430;6.840;2023-03-22T08:01:22;13.20;99.90
15328;DHT22;7764;51.430;6.840;2023-03-22T08:03:50;13.20;99.90
15328;DHT22;7764;51.430;6.840;2023-03-22T08:06:18;13.10;99.90
15328;DHT22;7764;51.430;6.840;2023-03-22T08:08:46;13.20;99.90
15328;DHT22;7764;51.430;6.840;2023-03-22T08:11:13;13.20;99.90
15328;DHT22;7764;51.430;6.840;2023-03-22T08:13:40;13.30;99.90
15328;DHT22;7764;51.430;6.840;2023-03-22T08:16:08;13.30;99.90
15328;DHT22;7764;51.430;6.840;2023-03-22T08:18:35;13.30;99.90
15328;DHT22;7764;51.430;6.840;2023-03-22T08:21:02;13.40;99.90
15328;DHT22;7764;51.430;6.840;2023-03-22T08:23:29;13.40;99.90
15328;DHT22;7764;51.430;6.840;2023-03-22T08:25:57;13.40;99.90
15328;DHT22;7764;51.430;6.840;2023-03-22T08:28:24;13.40;99.90
15328;DHT22;7764;51.430;6.840;2023-03-22T08:30:51;13.40;99.90
15328;DHT22;7764;51.430;6.840;2023-03-22T08:33:20;13.40;99.90
15328;DHT22;7764;51.430;6.840;2023-03-22T08:35:48;13.40;99.90
15328;DHT22;7764;51.430;6.840;2023-03-22T08:38:15;13.40;99.90
15328;DHT22;7764;51.430;6.840;2023-03-22T08:40:45;13.40;99.90
15328;DHT22;7764;51.430;6.840;2023-03-22T08:43:12;13.50;99.90
15328;DHT22;7764;51.430;6.840;2023-03-22T08:45:38;13.50;99.90
15328;DHT22;7764;51.430;6.840;2023-03-22T08:48:05;13.50;99.90
15328;DHT22;7764;51.430;6.840;2023-03-22T08:50:35;13.50;99.90
15328;DHT22;7764;51.430;6.840;2023-03-22T08:53:02;13.70;99.90
15328;DHT22;7764;51.430;6.840;2023-03-22T08:55:30;13.70;99.90
15328;DHT22;7764;51.430;6.840;2023-03-22T08:58:00;13.80;99.90
15328;DHT22;7764;51.430;6.840;2023-03-22T09:00:28;13.80;99.90
15328;DHT22;7764;51.430;6.840;2023-03-22T09:02:55;13.90;99.90
15328;DHT22;7764;51.430;6.840;2023-03-22T09:05:22;14.00;99.90
15328;DHT22;7764;51.430;6.840;2023-03-22T09:07:52;14.00;99.90
15328;DHT22;7764;51.430;6.840;2023-03-22T09:10:19;14.10;99.90
15328;DHT22;7764;51.430;6.840;2023-03-22T09:12:46;14.10;99.90
15328;DHT22;7764;51.430;6.840;2023-03-22T09:15:13;14.10;99.90
15328;DHT22;7764;51.430;6.840;2023-03-22T09:17:40;14.10;99.90
15328;DHT22;7764;51.430;6.840;2023-03-22T09:20:07;14.30;99.90
15328;DHT22;7764;51.430;6.840;2023-03-22T09:22:34;14.50;99.90
15328;DHT22;7764;51.430;6.840;2023-03-22T09:25:03;14.30;99.90
15328;DHT22;7764;51.430;6.840;2023-03-22T09:27:30;14.40;99.90
15328;DHT22;7764;51.430;6.840;2023-03-22T09:29:57;14.60;99.90
15328;DHT22;7764;51.430;6.840;2023-03-22T09:32:25;14.60;99.90
15328;DHT22;7764;51.430;6.840;2023-03-22T09:34:52;14.50;99.90
15328;DHT22;7764;51.430;6.840;2023-03-22T09:37:19;14.40;99.90
15328;DHT22;7764;51.430;6.840;2023-03-22T09:39:46;14.40;99.90
15328;DHT22;7764;51.430;6.840;2023-03-22T09:42:30;14.30;99.90
15328;DHT22;7764;51.430;6.840;2023-03-22T09:44:59;14.20;99.90
15328;DHT22;7764;51.430;6.840;2023-03-22T09:47:32;14.20;99.90
15328;DHT22;7764;51.430;6.840;2023-03-22T09:50:07;14.10;99.90
15328;DHT22;7764;51.430;6.840;2023-03-22T09:52:38;14.20;99.90
15328;DHT22;7764;51.430;6.840;2023-03-22T09:55:16;14.30;99.90
15328;DHT22;7764;51.430;6.840;2023-03-22T09:57:50;14.40;99.90
15328;DHT22;7764;51.430;6.840;2023-03-22T10:00:26;14.60;99.90
15328;DHT22;7764;51.430;6.840;2023-03-22T10:03:04;14.70;99.90
15328;DHT22;7764;51.430;6.840;2023-03-22T10:05:38;15.00;99.90
15328;DHT22;7764;51.430;6.840;2023-03-22T10:08:17;14.90;99.90
15328;DHT22;7764;51.430;6.840;2023-03-22T10:10:45;14.90;99.90
15328;DHT22;7764;51.430;6.840;2023-03-22T10:13:19;14.90;99.90
15328;DHT22;7764;51.430;6.840;2023-03-22T10:15:50;14.90;99.90
15328;DHT22;7764;51.430;6.840;2023-03-22T10:18:21;14.90;99.90
15328;DHT22;7764;51.430;6.840;2023-03-22T10:20:54;15.00;99.90
15328;DHT22;7764;51.430;6.840;2023-03-22T10:23:27;15.00;99.90
15328;DHT22;7764;51.430;6.840;2023-03-22T10:25:56;15.00;99.90
15328;DHT22;7764;51.430;6.840;2023-03-22T10:28:29;15.10;99.90
15328;DHT22;7764;51.430;6.840;2023-03-22T10:30:57;15.20;99.90
15328;DHT22;7764;51.430;6.840;2023-03-22T10:33:54;15.30;99.90
15328;DHT22;7764;51.430;6.840;2023-03-22T10:36:27;15.30;99.90
15328;DHT22;7764;51.430;6.840;2023-03-22T10:39:02;15.20;99.90
15328;DHT22;7764;51.430;6.840;2023-03-22T10:41:31;14.90;99.90
15328;DHT22;7764;51.430;6.840;2023-03-22T10:44:01;14.90;99.90
15328;DHT22;7764;51.430;6.840;2023-03-22T10:46:33;14.90;99.90
15328;DHT22;7764;51.430;6.840;2023-03-22T10:49:04;14.90;99.90
15328;DHT22;7764;51.430;6.840;2023-03-22T10:51:37;14.90;99.90
15328;DHT22;7764;51.430;6.840;2023-03-22T10:54:11;15.00;99.90
15328;DHT22;7764;51.430;6.840;2023-03-22T10:56:38;15.00;99.90
15328;DHT22;7764;51.430;6.840;2023-03-22T10:59:07;15.10;99.90
15328;DHT22;7764;51.430;6.840;2023-03-22T11:01:43;15.20;99.90
15328;DHT22;7764;51.430;6.840;2023-03-22T11:04:13;15.30;99.90
15328;DHT22;7764;51.430;6.840;2023-03-22T11:06:48;15.20;99.90
15328;DHT22;7764;51.430;6.840;2023-03-22T11:09:17;15.10;99.90
15328;DHT22;7764;51.430;6.840;2023-03-22T11:11:48;15.20;99.90
15328;DHT22;7764;51.430;6.840;2023-03-22T11:14:24;15.20;99.90
15328;DHT22;7764;51.430;6.840;2023-03-22T11:16:54;15.30;99.90
15328;DHT22;7764;51.430;6.840;2023-03-22T11:19:24;15.20;99.90
15328;DHT22;7764;51.430;6.840;2023-03-22T11:21:53;15.10;99.90
15328;DHT22;7764;51.430;6.840;2023-03-22T11:24:20;15.10;99.90
15328;DHT22;7764;51.430;6.840;2023-03-22T11:27:01;15.10;99.90
15328;DHT22;7764;51.430;6.840;2023-03-22T11:29:39;15.10;99.90
15328;DHT22;7764;51.430;6.840;2023-03-22T11:32:19;14.90;99.90
15328;DHT22;7764;51.430;6.840;2023-03-22T11:34:48;14.90;99.90
15328;DHT22;7764;51.430;6.840;2023-03-22T11:37:24;14.80;99.90
15328;DHT22;7764;51.430;6.840;2023-03-22T11:39:50;14.80;99.90
15328;DHT22;7764;51.430;6.840;2023-03-22T11:42:25;14.70;99.90
15328;DHT22;7764;51.430;6.840;2023-03-22T11:44:54;14.80;99.90
15328;DHT22;7764;51.430;6.840;2023-03-22T11:47:24;14.80;99.90
15328;DHT22;7764;51.430;6.840;2023-03-22T11:49:52;14.80;99.90
15328;DHT22;7764;51.430;6.840;2023-03-22T11:52:24;14.70;99.90
15328;DHT22;7764;51.430;6.840;2023-03-22T11:54:52;14.70;99.90
15328;DHT22;7764;51.430;6.840;2023-03-22T11:57:24;14.70;99.90
15328;DHT22;7764;51.430;6.840;2023-03-22T11:59:57;14.70;99.90
15328;DHT22;7764;51.430;6.840;2023-03-22T12:02:28;14.60;99.90
15328;DHT22;7764;51.430;6.840;2023-03-22T12:04:59;14.50;99.90
15328;DHT22;7764;51.430;6.840;2023-03-22T12:07:31;14.50;99.90
15328;DHT22;7764;51.430;6.840;2023-03-22T12:10:03;14.50;99.90
15328;DHT22;7764;51.430;6.840;2023-03-22T12:12:36;14.70;99.90
15328;DHT22;7764;51.430;6.840;2023-03-22T12:15:11;14.80;99.90
15328;DHT22;7764;51.430;6.840;2023-03-22T12:17:42;14.80;99.90
15328;DHT22;7764;51.430;6.840;2023-03-22T12:20:16;14.90;99.90
15328;DHT22;7764;51.430;6.840;2023-03-22T12:22:49;14.80;99.90
15328;DHT22;7764;51.430;6.840;2023-03-22T12:25:20;14.90;99.90
15328;DHT22;7764;51.430;6.840;2023-03-22T12:27:50;14.90;99.90
15328;DHT22;7764;51.430;6.840;2023-03-22T12:30:24;14.90;99.90
15328;DHT22;7764;51.430;6.840;2023-03-22T12:33:03;14.70;99.90
15328;DHT22;7764;51.430;6.840;2023-03-22T12:35:34;14.70;99.90
15328;DHT22;7764;51.430;6.840;2023-03-22T12:38:09;14.80;99.90
15328;DHT22;7764;51.430;6.840;2023-03-22T12:40:39;14.80;99.90
15328;DHT22;7764;51.430;6.840;2023-03-22T12:43:17;14.70;99.90
15328;DHT22;7764;51.430;6.840;2023-03-22T12:45:51;14.60;99.90
15328;DHT22;7764;51.430;6.840;2023-03-22T12:48:24;14.50;99.90
15328;DHT22;7764;51.430;6.840;2023-03-22T12:50:57;14.40;99.90
15328;DHT22;7764;51.430;6.840;2023-03-22T12:53:30;14.30;99.90
15328;DHT22;7764;51.430;6.840;2023-03-22T12:56:00;14.40;99.90
15328;DHT22;7764;51.430;6.840;2023-03-22T12:58:27;14.30;99.90
15328;DHT22;7764;51.430;6.840;2023-03-22T13:00:56;14.30;99.90
15328;DHT22;7764;51.430;6.840;2023-03-22T13:03:26;14.30;99.90
15328;DHT22;7764;51.430;6.840;2023-03-22T13:06:30;14.40;99.90
15328;DHT22;7764;51.430;6.840;2023-03-22T13:09:15;14.40;99.90
15328;DHT22;7764;51.430;6.840;2023-03-22T13:11:43;14.50;99.90
15328;DHT22;7764;51.430;6.840;2023-03-22T13:14:15;14.50;99.90
15328;DHT22;7764;51.430;6.840;2023-03-22T13:17:00;14.60;99.90
15328;DHT22;7764;51.430;6.840;2023-03-22T13:19:33;14.60;99.90
15328;DHT22;7764;51.430;6.840;2023-03-22T13:22:13;14.70;99.90
15328;DHT22;7764;51.430;6.840;2023-03-22T13:25:00;14.70;99.90
15328;DHT22;7764;51.430;6.840;2023-03-22T13:27:35;14.70;99.90
15328;DHT22;7764;51.430;6.840;2023-03-22T13:30:05;14.80;99.90
15328;DHT22;7764;51.430;6.840;2023-03-22T13:32:47;14.70;99.90
15328;DHT22;7764;51.430;6.840;2023-03-22T13:35:21;14.80;99.90
15328;DHT22;7764;51.430;6.840;2023-03-22T13:37:49;14.80;99.90
15328;DHT22;7764;51.430;6.840;2023-03-22T13:40:30;14.80;99.90
15328;DHT22;7764;51.430;6.840;2023-03-22T13:43:12;14.80;99.90
15328;DHT22;7764;51.430;6.840;2023-03-22T13:52:22;15.00;99.90
15328;DHT22;7764;51.430;6.840;2023-03-22T13:54:50;15.10;99.90
15328;DHT22;7764;51.430;6.840;2023-03-22T13:57:37;15.20;99.90
15328;DHT22;7764;51.430;6.840;2023-03-22T14:00:15;15.20;99.90
15328;DHT22;7764;51.430;6.840;2023-03-22T14:02:44;15.30;99.90
15328;DHT22;7764;51.430;6.840;2023-03-22T14:05:17;15.20;99.90
15328;DHT22;7764;51.430;6.840;2023-03-22T14:07:48;15.20;99.90
15328;DHT22;7764;51.430;6.840;2023-03-22T14:10:19;15.10;99.90
15328;DHT22;7764;51.430;6.840;2023-03-22T14:12:49;15.00;99.90
15328;DHT22;7764;51.430;6.840;2023-03-22T14:15:19;14.90;99.90
15328;DHT22;7764;51.430;6.840;2023-03-22T14:17:49;14.90;99.90
15328;DHT22;7764;51.430;6.840;2023-03-22T14:20:21;15.00;99.90
15328;DHT22;7764;51.430;6.840;2023-03-22T14:22:52;14.90;99.90
15328;DHT22;7764;51.430;6.840;2023-03-22T14:25:24;15.00;99.90
15328;DHT22;7764;51.430;6.840;2023-03-22T14:27:52;15.00;99.90
15328;DHT22;7764;51.430;6.840;2023-03-22T14:30:53;14.90;99.90
15328;DHT22;7764;51.430;6.840;2023-03-22T14:33:21;14.90;99.90
15328;DHT22;7764;51.430;6.840;2023-03-22T14:35:54;14.90;99.90
15328;DHT22;7764;51.430;6.840;2023-03-22T14:38:25;14.80;99.90
15328;DHT22;7764;51.430;6.840;2023-03-22T14:41:05;14.90;99.90
15328;DHT22;7764;51.430;6.840;2023-03-22T14:43:32;14.80;99.90
15328;DHT22;7764;51.430;6.840;2023-03-22T14:46:02;14.80;99.90
15328;DHT22;7764;51.430;6.840;2023-03-22T14:48:32;14.80;99.90
15328;DHT22;7764;51.430;6.840;2023-03-22T14:51:02;14.80;99.90
15328;DHT22;7764;51.430;6.840;2023-03-22T14:53:34;14.80;99.90
15328;DHT22;7764;51.430;6.840;2023-03-22T14:56:04;14.70;99.90
15328;DHT22;7764;51.430;6.840;2023-03-22T14:58:34;14.80;99.90
15328;DHT22;7764;51.430;6.840;2023-03-22T15:01:06;14.70;99.90
15328;DHT22;7764;51.430;6.840;2023-03-22T15:03:34;14.80;99.90
15328;DHT22;7764;51.430;6.840;2023-03-22T15:06:07;14.80;99.90
15328;DHT22;7764;51.430;6.840;2023-03-22T15:08:35;14.80;99.90
15328;DHT22;7764;51.430;6.840;2023-03-22T15:11:05;14.80;99.90
15328;DHT22;7764;51.430;6.840;2023-03-22T15:13:36;14.70;99.90
15328;DHT22;7764;51.430;6.840;2023-03-22T15:16:05;14.70;99.90
15328;DHT22;7764;51.430;6.840;2023-03-22T15:18:34;14.70;99.90
15328;DHT22;7764;51.430;6.840;2023-03-22T15:21:04;14.70;99.90
15328;DHT22;7764;51.430;6.840;2023-03-22T15:23:34;14.80;99.90
15328;DHT22;7764;51.430;6.840;2023-03-22T15:26:07;14.70;99.90
15328;DHT22;7764;51.430;6.840;2023-03-22T15:28:42;14.70;99.90
15328;DHT22;7764;51.430;6.840;2023-03-22T15:31:22;14.70;99.90
15328;DHT22;7764;51.430;6.840;2023-03-22T15:33:52;14.70;99.90
15328;DHT22;7764;51.430;6.840;2023-03-22T15:36:21;14.70;99.90
15328;DHT22;7764;51.430;6.840;2023-03-22T15:38:50;14.70;99.90
15328;DHT22;7764;51.430;6.840;2023-03-22T15:41:23;14.70;99.90
15328;DHT22;7764;51.430;6.840;2023-03-22T15:44:13;14.70;99.90
15328;DHT22;7764;51.430;6.840;2023-03-22T15:46:52;14.70;99.90
15328;DHT22;7764;51.430;6.840;2023-03-22T15:49:23;14.70;99.90
15328;DHT22;7764;51.430;6.840;2023-03-22T15:51:54;14.70;99.90
15328;DHT22;7764;51.430;6.840;2023-03-22T15:54:27;14.70;99.90
15328;DHT22;7764;51.430;6.840;2023-03-22T15:57:08;14.70;99.90
15328;DHT22;7764;51.430;6.840;2023-03-22T15:59:48;14.80;99.90
15328;DHT22;7764;51.430;6.840;2023-03-22T16:02:25;14.70;99.90
15328;DHT22;7764;51.430;6.840;2023-03-22T16:04:53;14.80;99.90
15328;DHT22;7764;51.430;6.840;2023-03-22T16:07:25;14.70;99.90
15328;DHT22;7764;51.430;6.840;2023-03-22T16:09:53;14.70;99.90
15328;DHT22;7764;51.430;6.840;2023-03-22T16:12:21;14.70;99.90
15328;DHT22;7764;51.430;6.840;2023-03-22T16:14:48;14.70;99.90
15328;DHT22;7764;51.430;6.840;2023-03-22T16:17:18;14.70;99.90